Time;durP1;ratioP1;P1;durP2;ratioP2;P2;SDS_P1;SDS_P2;PMS_P1;PMS_P2;Temp;Humidity;BMP_temperature;BMP_pressure;BME280_temperature;BME280_humidity;BME280_pressure;Samples;Min_cycle;Max_cycle;Signal;HPM_P1;HPM_P2
2023/03/31 00:00:27;;;;;;;5.88;2.60;;;10.20;99.90;;;;;;5110651;28;20139;-63
2023/03/31 00:02:56;;;;;;;9.75;4.13;;;10.10;99.90;;;;;;5105244;28;20044;-64
2023/03/31 00:05:25;;;;;;;10.32;2.80;;;10.10;99.90;;;;;;5110141;28;20039;-64
2023/03/31 00:07:59;;;;;;;7.18;2.85;;;10.20;99.90;;;;;;5107995;28;20043;-65
2023/03/31 00:10:32;;;;;;;5.88;2.63;;;10.10;99.90;;;;;;5109836;28;20100;-63
2023/03/31 00:13:00;;;;;;;6.60;2.80;;;10.10;99.90;;;;;;5104119;28;20501;-63
2023/03/31 00:15:28;;;;;;;4.43;2.70;;;10.10;99.90;;;;;;5110083;28;20042;-64
2023/03/31 00:17:59;;;;;;;8.35;2.65;;;10.10;99.90;;;;;;5108554;28;20111;-63
2023/03/31 00:20:27;;;;;;;5.80;2.40;;;10.10;99.90;;;;;;5103562;28;20093;-63
2023/03/31 00:22:56;;;;;;;5.82;2.70;;;10.10;99.90;;;;;;5109784;28;20290;-63
2023/03/31 00:25:24;;;;;;;6.90;2.75;;;10.00;99.90;;;;;;5104526;28;20085;-64
2023/03/31 00:27:51;;;;;;;7.45;2.65;;;10.00;99.90;;;;;;5106520;28;20097;-63
2023/03/31 00:30:19;;;;;;;7.35;2.88;;;10.00;99.90;;;;;;5090892;28;20036;-62
2023/03/31 00:32:46;;;;;;;7.20;2.72;;;9.90;99.90;;;;;;5104744;28;20563;-64
2023/03/31 00:35:14;;;;;;;8.27;3.00;;;9.80;99.90;;;;;;5107515;28;20032;-64
2023/03/31 00:37:42;;;;;;;7.72;2.80;;;9.70;99.90;;;;;;5105262;28;20130;-64
2023/03/31 00:40:10;;;;;;;7.82;2.90;;;9.70;99.90;;;;;;5077691;28;20053;-63
2023/03/31 00:42:42;;;;;;;6.68;2.63;;;9.60;99.90;;;;;;5095255;28;20042;-63
2023/03/31 00:45:12;;;;;;;9.23;3.35;;;9.60;99.90;;;;;;5100386;28;20038;-64
2023/03/31 00:47:43;;;;;;;10.38;2.85;;;9.60;99.90;;;;;;5100306;28;20043;-63
2023/03/31 00:50:24;;;;;;;9.23;3.25;;;9.60;99.90;;;;;;5101663;28;20035;-64
2023/03/31 00:53:03;;;;;;;5.10;2.45;;;9.50;99.90;;;;;;5088865;28;20400;-63
2023/03/31 00:55:36;;;;;;;7.03;2.97;;;9.50;99.90;;;;;;5100372;28;20316;-63
2023/03/31 00:58:06;;;;;;;8.63;3.05;;;9.50;99.90;;;;;;5107504;28;20527;-64
2023/03/31 01:00:33;;;;;;;6.10;2.85;;;9.50;99.90;;;;;;5079337;28;20053;-64
2023/03/31 01:03:05;;;;;;;5.07;2.63;;;9.50;99.90;;;;;;5109059;28;20043;-64
2023/03/31 01:05:39;;;;;;;8.23;2.70;;;9.50;99.90;;;;;;5101816;28;20119;-65
2023/03/31 01:08:08;;;;;;;9.52;3.00;;;9.50;99.90;;;;;;5108227;28;20059;-64
2023/03/31 01:10:42;;;;;;;5.75;2.83;;;9.50;99.90;;;;;;5085714;28;20040;-64
2023/03/31 01:13:13;;;;;;;8.75;3.05;;;9.60;99.90;;;;;;5104409;28;20046;-63
2023/03/31 01:15:41;;;;;;;6.35;2.80;;;9.60;99.90;;;;;;5112815;28;20046;-66
2023/03/31 01:18:10;;;;;;;8.60;3.17;;;9.50;99.90;;;;;;5104657;28;20510;-63
2023/03/31 01:20:49;;;;;;;8.38;2.80;;;9.50;99.90;;;;;;5105394;28;20046;-64
2023/03/31 01:23:42;;;;;;;6.43;2.65;;;9.50;99.90;;;;;;5105721;28;20039;-64
2023/03/31 01:26:39;;;;;;;9.73;2.85;;;9.60;99.90;;;;;;5103594;28;20032;-64
2023/03/31 01:29:15;;;;;;;7.10;2.70;;;9.60;99.90;;;;;;5085923;28;20557;-64
2023/03/31 01:32:04;;;;;;;6.55;2.88;;;9.50;99.90;;;;;;5112790;28;20040;-63
2023/03/31 01:35:19;;;;;;;8.00;2.70;;;9.50;99.90;;;;;;5114285;27;20054;-65
2023/03/31 01:38:11;;;;;;;5.70;2.40;;;9.50;99.90;;;;;;5025100;28;20037;-63
2023/03/31 01:40:57;;;;;;;5.28;2.20;;;9.50;99.90;;;;;;5029179;28;20046;-64
2023/03/31 01:43:45;;;;;;;7.72;2.67;;;9.60;99.90;;;;;;5034343;28;20518;-63
2023/03/31 01:46:52;;;;;;;8.40;2.70;;;9.60;99.90;;;;;;5002732;28;20611;-63
2023/03/31 01:49:30;;;;;;;8.07;3.13;;;9.60;99.90;;;;;;5027836;28;20041;-64
2023/03/31 01:52:07;;;;;;;7.35;3.08;;;9.70;99.90;;;;;;5026505;28;20149;-65
2023/03/31 01:54:42;;;;;;;7.22;3.53;;;9.70;99.90;;;;;;5023383;28;20041;-65
2023/03/31 01:57:17;;;;;;;7.97;3.60;;;9.80;99.90;;;;;;5027227;28;20053;-64
2023/03/31 01:59:56;;;;;;;11.20;3.92;;;9.70;99.90;;;;;;5011441;28;20037;-64
2023/03/31 02:02:36;;;;;;;7.30;3.10;;;9.70;99.90;;;;;;5027568;28;20520;-64
2023/03/31 02:05:14;;;;;;;9.95;3.72;;;9.80;99.90;;;;;;5029298;28;20053;-64
2023/03/31 02:08:05;;;;;;;9.38;3.85;;;9.80;99.90;;;;;;5026636;28;20103;-64
2023/03/31 02:10:34;;;;;;;8.88;3.50;;;9.80;99.90;;;;;;5014330;28;20052;-65
2023/03/31 02:13:02;;;;;;;10.95;3.30;;;9.80;99.90;;;;;;5036975;28;20068;-64
2023/03/31 02:15:37;;;;;;;9.38;3.72;;;9.80;99.90;;;;;;5111087;28;20118;-65
2023/03/31 02:18:10;;;;;;;7.28;3.83;;;9.80;99.90;;;;;;5111170;28;20490;-65
2023/03/31 02:20:41;;;;;;;9.18;3.63;;;9.80;99.90;;;;;;5093268;28;20035;-64
2023/03/31 02:23:12;;;;;;;7.80;3.08;;;9.80;99.90;;;;;;5110567;28;20463;-63
2023/03/31 02:25:48;;;;;;;8.90;3.20;;;9.80;99.90;;;;;;5091578;28;20047;-63
2023/03/31 02:28:22;;;;;;;7.88;3.20;;;9.80;99.90;;;;;;5111821;28;20443;-63
2023/03/31 02:31:05;;;;;;;9.00;3.15;;;9.80;99.90;;;;;;5092934;28;20043;-64
2023/03/31 02:33:32;;;;;;;7.13;3.30;;;9.90;99.90;;;;;;5089399;28;20470;-63
2023/03/31 02:36:00;;;;;;;8.50;3.33;;;9.90;99.90;;;;;;5101401;28;20118;-64
2023/03/31 02:38:34;;;;;;;9.23;3.13;;;9.90;99.90;;;;;;5093064;28;20539;-63
2023/03/31 02:41:05;;;;;;;9.82;3.13;;;9.90;99.90;;;;;;5093955;28;20514;-64
2023/03/31 02:43:32;;;;;;;7.10;3.10;;;9.90;99.90;;;;;;5110108;28;20036;-64
2023/03/31 02:45:59;;;;;;;9.98;3.40;;;9.90;99.90;;;;;;5101734;28;20122;-65
2023/03/31 02:48:38;;;;;;;8.82;3.15;;;9.90;99.90;;;;;;5083794;28;20036;-64
2023/03/31 02:51:27;;;;;;;9.90;3.75;;;9.90;99.90;;;;;;5092039;28;20502;-63
2023/03/31 02:54:06;;;;;;;6.60;3.00;;;9.90;99.90;;;;;;5089201;28;20040;-63
2023/03/31 02:57:26;;;;;;;8.80;3.30;;;9.90;99.90;;;;;;5092352;28;20468;-63
2023/03/31 03:00:29;;;;;;;9.35;3.10;;;9.80;99.90;;;;;;5091108;28;20493;-64
2023/03/31 03:03:18;;;;;;;9.32;3.20;;;9.90;99.90;;;;;;5070093;28;20153;-63
2023/03/31 03:05:57;;;;;;;11.10;3.03;;;9.80;99.90;;;;;;5089543;28;20118;-64
2023/03/31 03:09:05;;;;;;;6.22;3.00;;;9.80;99.90;;;;;;5090188;28;20039;-65
2023/03/31 03:11:58;;;;;;;8.73;3.80;;;9.80;99.90;;;;;;5086274;28;20032;-65
2023/03/31 03:14:29;;;;;;;;;;;9.80;99.90;;;;;;5104563;28;20036;-64
2023/03/31 03:17:09;;;;;;;6.35;2.85;;;9.80;99.90;;;;;;5091053;28;19923;-64
2023/03/31 03:19:37;;;;;;;14.27;3.35;;;9.80;99.90;;;;;;5105949;28;20430;-64
2023/03/31 03:22:04;;;;;;;8.02;3.28;;;9.80;99.90;;;;;;5109700;28;20040;-64
2023/03/31 03:24:34;;;;;;;10.13;3.50;;;9.70;99.90;;;;;;5109986;28;20494;-64
2023/03/31 03:27:02;;;;;;;8.90;3.42;;;9.70;99.90;;;;;;5109058;28;20048;-63
2023/03/31 03:29:29;;;;;;;8.52;3.00;;;9.70;99.90;;;;;;5111025;28;20039;-62
2023/03/31 03:31:56;;;;;;;8.88;3.53;;;9.70;99.90;;;;;;5104170;28;20059;-62
2023/03/31 03:34:24;;;;;;;10.63;3.97;;;9.60;99.90;;;;;;5110417;28;20079;-63
2023/03/31 03:36:51;;;;;;;8.02;2.90;;;9.70;99.90;;;;;;5104757;28;20535;-64
2023/03/31 03:39:19;;;;;;;7.95;3.58;;;9.80;99.90;;;;;;5109669;28;20040;-63
2023/03/31 03:41:46;;;;;;;8.73;3.08;;;9.80;99.90;;;;;;5109608;28;20035;-63
2023/03/31 03:44:14;;;;;;;9.00;3.60;;;9.80;99.90;;;;;;5108563;28;20233;-63
2023/03/31 03:46:41;;;;;;;8.13;3.75;;;9.80;99.90;;;;;;5090396;28;20046;-64
2023/03/31 03:49:08;;;;;;;8.75;3.33;;;9.80;99.90;;;;;;5109054;28;20118;-64
2023/03/31 03:51:36;;;;;;;7.30;3.10;;;9.80;99.90;;;;;;5109510;28;20035;-65
2023/03/31 03:54:03;;;;;;;8.70;3.45;;;9.80;99.90;;;;;;5097089;28;20040;-64
2023/03/31 03:56:30;;;;;;;6.63;2.95;;;9.90;99.90;;;;;;5106878;28;20518;-64
2023/03/31 03:58:58;;;;;;;7.97;3.10;;;9.90;99.90;;;;;;5087652;28;20039;-62
2023/03/31 04:01:25;;;;;;;9.13;3.22;;;9.90;99.90;;;;;;5109284;28;20421;-63
2023/03/31 04:03:53;;;;;;;6.78;2.90;;;9.90;99.90;;;;;;5105772;27;20139;-65
2023/03/31 04:06:20;;;;;;;7.45;3.10;;;9.90;99.90;;;;;;5108637;28;20460;-63
2023/03/31 04:08:47;;;;;;;11.15;3.63;;;9.90;99.90;;;;;;5082131;28;20054;-64
2023/03/31 04:11:18;;;;;;;10.07;3.17;;;9.90;99.90;;;;;;5107071;27;20043;-62
2023/03/31 04:13:45;;;;;;;10.52;3.55;;;9.90;99.90;;;;;;5074208;28;20035;-63
2023/03/31 04:16:13;;;;;;;10.35;3.33;;;9.80;99.90;;;;;;5100702;28;20039;-65
2023/03/31 04:18:44;;;;;;;10.07;3.85;;;9.80;99.90;;;;;;5090691;28;20044;-64
2023/03/31 04:21:21;;;;;;;9.57;4.20;;;9.80;99.90;;;;;;5101278;28;20063;-63
2023/03/31 04:24:00;;;;;;;9.77;3.53;;;9.70;99.90;;;;;;5109234;28;20032;-64
2023/03/31 04:26:30;;;;;;;14.63;5.22;;;9.70;99.90;;;;;;5102778;28;20040;-63
2023/03/31 04:28:59;;;;;;;8.57;3.85;;;9.70;99.90;;;;;;5109574;28;20043;-65
2023/03/31 04:31:29;;;;;;;14.10;4.18;;;9.60;99.90;;;;;;5104175;28;20040;-63
2023/03/31 04:34:01;;;;;;;10.13;4.63;;;9.60;99.90;;;;;;5107902;28;20455;-64
2023/03/31 04:36:30;;;;;;;14.65;4.10;;;9.60;99.90;;;;;;5104988;28;20039;-63
2023/03/31 04:38:57;;;;;;;12.25;4.72;;;9.60;99.90;;;;;;5101228;28;20051;-63
2023/03/31 04:41:28;;;;;;;9.85;4.13;;;9.60;99.90;;;;;;5100352;28;20070;-63
2023/03/31 04:43:56;;;;;;;10.93;3.53;;;9.60;99.90;;;;;;5099083;28;20405;-62
2023/03/31 04:46:24;;;;;;;14.15;3.28;;;9.60;99.90;;;;;;5103025;28;20139;-63
2023/03/31 04:48:51;;;;;;;11.05;3.10;;;9.60;99.90;;;;;;5105194;28;20967;-65
2023/03/31 04:51:19;;;;;;;9.25;3.45;;;9.60;99.90;;;;;;5095325;28;20036;-62
2023/03/31 04:53:46;;;;;;;10.65;3.20;;;9.70;99.90;;;;;;5111185;28;20043;-63
2023/03/31 04:56:13;;;;;;;11.30;3.17;;;9.70;99.90;;;;;;5113127;28;20179;-64
2023/03/31 04:58:41;;;;;;;8.60;3.33;;;9.70;99.90;;;;;;5109948;28;20085;-66
2023/03/31 05:01:09;;;;;;;7.90;3.63;;;9.70;99.90;;;;;;5122598;27;20127;-64
2023/03/31 05:03:36;;;;;;;12.60;3.65;;;9.70;99.90;;;;;;5095532;28;20047;-64
2023/03/31 05:06:04;;;;;;;9.23;3.25;;;9.70;99.90;;;;;;5106744;28;20663;-64
2023/03/31 05:08:32;;;;;;;12.27;3.40;;;9.70;99.90;;;;;;5109216;28;20040;-64
2023/03/31 05:11:02;;;;;;;8.05;3.83;;;9.80;99.90;;;;;;5109692;28;20108;-64
2023/03/31 05:13:29;;;;;;;9.35;4.85;;;9.80;99.90;;;;;;5112148;28;20040;-63
2023/03/31 05:15:56;;;;;;;12.77;4.80;;;9.80;99.90;;;;;;5112463;28;20070;-63
2023/03/31 05:18:24;;;;;;;12.48;4.13;;;9.80;99.90;;;;;;5112499;28;20050;-64
2023/03/31 05:20:51;;;;;;;11.27;4.45;;;9.80;99.90;;;;;;5108466;28;20074;-62
2023/03/31 05:23:18;;;;;;;9.27;4.07;;;9.80;99.90;;;;;;5105196;28;20514;-62
2023/03/31 05:25:46;;;;;;;11.07;4.20;;;9.80;99.90;;;;;;5108861;28;20151;-63
2023/03/31 05:28:13;;;;;;;9.63;3.90;;;9.80;99.90;;;;;;5108887;28;20062;-62
2023/03/31 05:30:41;;;;;;;8.25;4.40;;;9.90;99.90;;;;;;5112738;28;20489;-63
2023/03/31 05:33:08;;;;;;;8.50;4.13;;;9.90;99.90;;;;;;5111797;28;20593;-63
2023/03/31 05:35:35;;;;;;;11.27;4.13;;;9.90;99.90;;;;;;5112215;28;20049;-63
2023/03/31 05:38:03;;;;;;;9.40;4.22;;;9.90;99.90;;;;;;5092634;28;20074;-62
2023/03/31 05:40:30;;;;;;;16.75;4.18;;;10.00;99.90;;;;;;5110452;28;20141;-64
2023/03/31 05:42:58;;;;;;;11.00;4.18;;;9.90;99.90;;;;;;5109908;28;20104;-64
2023/03/31 05:45:25;;;;;;;11.63;4.32;;;9.90;99.90;;;;;;5110583;28;20039;-63
2023/03/31 05:47:52;;;;;;;7.30;4.13;;;10.00;99.90;;;;;;5109996;28;20122;-62
2023/03/31 05:50:19;;;;;;;8.55;4.13;;;10.00;99.90;;;;;;5112116;27;20039;-62
2023/03/31 05:52:47;;;;;;;9.80;4.25;;;10.10;99.90;;;;;;5110659;28;20042;-64
2023/03/31 05:55:14;;;;;;;11.48;4.10;;;10.10;99.90;;;;;;5110359;28;20116;-62
2023/03/31 05:57:41;;;;;;;9.48;4.38;;;10.10;99.90;;;;;;5108951;28;20044;-62
2023/03/31 06:00:10;;;;;;;11.52;4.32;;;10.10;99.90;;;;;;5110127;28;20284;-64
2023/03/31 06:02:37;;;;;;;7.70;4.00;;;10.20;99.90;;;;;;5110249;28;20059;-62
2023/03/31 06:05:05;;;;;;;10.95;4.47;;;10.20;99.90;;;;;;5092162;28;20108;-64
2023/03/31 06:07:32;;;;;;;10.07;4.63;;;10.30;99.90;;;;;;5104513;28;20036;-62
2023/03/31 06:09:59;;;;;;;7.07;3.72;;;10.20;99.90;;;;;;5111677;28;20044;-63
2023/03/31 06:12:27;;;;;;;11.55;4.20;;;10.20;99.90;;;;;;5111200;28;20054;-63
2023/03/31 06:14:54;;;;;;;11.77;4.60;;;10.20;99.90;;;;;;5111877;28;20039;-65
2023/03/31 06:17:21;;;;;;;9.68;4.03;;;10.30;99.90;;;;;;5111411;28;20032;-65
2023/03/31 06:19:48;;;;;;;11.73;4.28;;;10.20;99.90;;;;;;5111834;28;20512;-65
2023/03/31 06:22:16;;;;;;;15.88;3.70;;;10.20;99.90;;;;;;5111979;28;20051;-65
2023/03/31 06:24:43;;;;;;;7.55;3.83;;;10.30;99.90;;;;;;5111597;28;20641;-65
2023/03/31 06:27:10;;;;;;;12.10;3.80;;;10.20;99.90;;;;;;5110616;28;20043;-62
2023/03/31 06:29:37;;;;;;;9.98;4.00;;;10.20;99.90;;;;;;5111862;28;20051;-64
2023/03/31 06:32:05;;;;;;;9.18;3.63;;;10.20;99.90;;;;;;5111612;28;20424;-63
2023/03/31 06:34:32;;;;;;;10.57;3.78;;;10.20;99.90;;;;;;5111888;28;20474;-65
2023/03/31 06:37:00;;;;;;;8.70;3.83;;;10.20;99.90;;;;;;5110713;28;20560;-63
2023/03/31 06:39:27;;;;;;;9.65;4.30;;;10.20;99.90;;;;;;5111356;28;20092;-65
2023/03/31 06:41:55;;;;;;;11.02;4.03;;;10.20;99.90;;;;;;5110948;28;20501;-65
2023/03/31 06:44:26;;;;;;;;;;;10.20;99.90;;;;;;5089430;28;20062;-65
2023/03/31 06:46:53;;;;;;;8.27;4.18;;;10.10;99.90;;;;;;5084992;28;19927;-63
2023/03/31 06:49:21;;;;;;;12.43;4.57;;;10.10;99.90;;;;;;5109742;28;20039;-65
2023/03/31 06:51:48;;;;;;;12.55;4.82;;;10.00;99.90;;;;;;5105040;27;20058;-64
2023/03/31 06:54:15;;;;;;;10.52;5.05;;;10.00;99.90;;;;;;5118085;27;20043;-63
2023/03/31 06:56:43;;;;;;;12.07;4.93;;;10.00;99.90;;;;;;5104663;28;20062;-63
2023/03/31 06:59:10;;;;;;;10.25;4.68;;;10.00;99.90;;;;;;5083925;28;20535;-65
2023/03/31 07:01:37;;;;;;;14.50;5.15;;;10.00;99.90;;;;;;5106325;28;20380;-64
2023/03/31 07:04:05;;;;;;;15.10;4.85;;;10.00;99.90;;;;;;5109707;28;20067;-63
2023/03/31 07:06:33;;;;;;;12.65;4.75;;;9.80;99.90;;;;;;5109585;28;20122;-64
2023/03/31 07:09:00;;;;;;;12.68;4.93;;;9.90;99.90;;;;;;5106487;28;20546;-64
2023/03/31 07:11:28;;;;;;;12.18;4.88;;;9.90;99.90;;;;;;5086417;28;20537;-64
2023/03/31 07:13:55;;;;;;;10.40;5.20;;;9.80;99.90;;;;;;5108814;28;20061;-64
2023/03/31 07:16:22;;;;;;;13.43;5.43;;;9.80;99.90;;;;;;5104424;28;20062;-63
2023/03/31 07:18:52;;;;;;;13.00;5.43;;;9.80;99.90;;;;;;5109373;28;20184;-64
2023/03/31 07:21:20;;;;;;;15.68;5.88;;;9.90;99.90;;;;;;5102802;28;20035;-64
2023/03/31 07:23:47;;;;;;;13.15;5.97;;;9.90;99.90;;;;;;5109990;28;20122;-64
2023/03/31 07:26:15;;;;;;;10.63;5.47;;;9.90;99.90;;;;;;5074605;28;20115;-64
2023/03/31 07:28:42;;;;;;;14.02;6.00;;;9.90;99.90;;;;;;5118745;27;20452;-63
2023/03/31 07:31:11;;;;;;;14.90;6.70;;;10.00;99.90;;;;;;5110488;28;20061;-63
2023/03/31 07:33:39;;;;;;;14.38;6.40;;;9.90;99.90;;;;;;5071514;28;20108;-62
2023/03/31 07:36:07;;;;;;;12.32;6.47;;;10.00;99.90;;;;;;5106199;28;20452;-64
2023/03/31 07:38:41;;;;;;;13.02;6.70;;;10.10;99.90;;;;;;5092474;28;20035;-64
2023/03/31 07:41:10;;;;;;;12.10;6.95;;;10.00;99.90;;;;;;5091099;28;20066;-64
2023/03/31 07:43:38;;;;;;;16.20;9.38;;;10.00;99.90;;;;;;5111455;28;20046;-64
2023/03/31 07:46:12;;;;;;;14.88;7.55;;;10.00;99.90;;;;;;5105656;28;20136;-65
2023/03/31 07:48:39;;;;;;;10.55;6.28;;;10.10;99.90;;;;;;5101171;28;20036;-65
2023/03/31 07:51:07;;;;;;;12.95;6.47;;;10.10;99.90;;;;;;5090659;28;20052;-65
2023/03/31 07:53:36;;;;;;;17.35;7.15;;;10.20;99.90;;;;;;5084036;28;20322;-62
2023/03/31 07:56:03;;;;;;;16.85;7.18;;;10.20;99.90;;;;;;5092036;28;20518;-63
2023/03/31 07:58:31;;;;;;;11.65;6.63;;;10.20;99.90;;;;;;5091260;28;20186;-64
2023/03/31 08:00:58;;;;;;;11.50;5.95;;;10.20;99.90;;;;;;5084317;28;20051;-64
2023/03/31 08:03:26;;;;;;;13.80;7.72;;;10.20;99.90;;;;;;5110421;28;20044;-64
2023/03/31 08:05:54;;;;;;;12.07;6.65;;;10.10;99.90;;;;;;5108590;28;20198;-65
2023/03/31 08:08:21;;;;;;;14.15;6.28;;;10.10;99.90;;;;;;5103470;28;20031;-64
2023/03/31 08:10:48;;;;;;;14.27;6.80;;;10.10;99.90;;;;;;5109859;28;20039;-64
2023/03/31 08:13:16;;;;;;;14.10;7.07;;;10.00;99.90;;;;;;5101624;28;20053;-65
2023/03/31 08:15:43;;;;;;;15.15;7.55;;;9.90;99.90;;;;;;5108854;28;20100;-64
2023/03/31 08:18:11;;;;;;;17.50;7.90;;;9.80;99.90;;;;;;5100952;28;20489;-65
2023/03/31 08:20:38;;;;;;;18.80;8.27;;;9.80;99.90;;;;;;5109199;28;20490;-65
2023/03/31 08:23:08;;;;;;;18.13;8.27;;;9.90;99.90;;;;;;5103302;28;20505;-64
2023/03/31 08:25:35;;;;;;;18.98;7.80;;;9.90;99.90;;;;;;5109506;28;20027;-65
2023/03/31 08:28:02;;;;;;;19.83;8.15;;;9.90;99.90;;;;;;5084254;28;20122;-63
2023/03/31 08:30:30;;;;;;;14.65;7.03;;;9.90;99.90;;;;;;5091968;28;20031;-64
2023/03/31 08:32:57;;;;;;;16.50;7.95;;;10.00;99.90;;;;;;5090222;28;20122;-65
2023/03/31 08:35:24;;;;;;;16.13;8.20;;;9.90;99.90;;;;;;5088940;28;20035;-64
2023/03/31 08:37:51;;;;;;;16.27;7.50;;;9.90;99.90;;;;;;5105856;28;20054;-64
2023/03/31 08:40:24;;;;;;;15.05;7.57;;;10.00;99.90;;;;;;5109625;28;20039;-65
2023/03/31 08:43:13;;;;;;;14.13;7.00;;;10.10;99.90;;;;;;5110039;28;20044;-65
2023/03/31 08:45:46;;;;;;;13.75;6.57;;;10.20;99.90;;;;;;5104777;28;20503;-65
2023/03/31 08:48:31;;;;;;;14.00;7.55;;;10.30;99.90;;;;;;5094828;28;20040;-63
2023/03/31 08:51:15;;;;;;;17.52;7.55;;;10.50;99.90;;;;;;5106795;28;20044;-64
2023/03/31 08:53:58;;;;;;;14.40;8.23;;;10.70;99.90;;;;;;5084406;28;20126;-64
2023/03/31 08:56:26;;;;;;;12.45;6.43;;;10.90;99.90;;;;;;5102406;28;20077;-64
2023/03/31 08:58:54;;;;;;;13.60;6.18;;;11.00;99.90;;;;;;5102683;28;20458;-64
2023/03/31 09:01:36;;;;;;;12.73;6.28;;;11.10;99.90;;;;;;5108995;28;20084;-65
2023/03/31 09:04:46;;;;;;;19.55;10.43;;;11.20;99.90;;;;;;5091368;28;20251;-64
2023/03/31 09:07:27;;;;;;;9.68;6.10;;;11.50;99.90;;;;;;5100001;28;20485;-64
2023/03/31 09:10:08;;;;;;;16.30;6.33;;;11.70;99.90;;;;;;5106369;28;20062;-64
2023/03/31 09:13:01;;;;;;;12.45;6.78;;;11.40;99.90;;;;;;5107107;28;20039;-64
2023/03/31 09:15:45;;;;;;;13.57;6.47;;;11.50;99.90;;;;;;5103493;28;20490;-63
2023/03/31 09:18:37;;;;;;;12.30;6.35;;;11.30;99.90;;;;;;5074155;28;20621;-64
2023/03/31 09:21:32;;;;;;;14.98;6.47;;;11.40;99.90;;;;;;5098164;28;20043;-65
2023/03/31 09:24:04;;;;;;;10.27;6.22;;;11.40;99.90;;;;;;5105435;28;20131;-64
2023/03/31 09:26:47;;;;;;;9.68;5.68;;;11.50;99.90;;;;;;5100910;28;20039;-63
2023/03/31 09:29:18;;;;;;;12.55;6.22;;;11.60;99.90;;;;;;5100851;28;20042;-63
2023/03/31 09:31:46;;;;;;;11.20;6.25;;;11.80;99.90;;;;;;5104169;28;20042;-64
2023/03/31 09:34:28;;;;;;;10.52;6.47;;;11.80;99.90;;;;;;5113274;28;20040;-63
2023/03/31 09:36:55;;;;;;;9.02;6.10;;;11.90;99.90;;;;;;5103511;28;20067;-64
2023/03/31 09:39:23;;;;;;;10.98;6.18;;;11.90;99.90;;;;;;5107751;28;20047;-63
2023/03/31 09:41:52;;;;;;;12.82;6.57;;;12.10;99.90;;;;;;5109081;28;20529;-63
2023/03/31 09:44:22;;;;;;;11.38;5.50;;;12.20;99.90;;;;;;5112660;28;20535;-63
2023/03/31 09:46:50;;;;;;;10.88;5.93;;;12.30;99.90;;;;;;5112395;28;20474;-64
2023/03/31 09:49:25;;;;;;;9.13;5.75;;;12.40;99.90;;;;;;5110105;28;20036;-64
2023/03/31 09:52:11;;;;;;;8.23;4.13;;;12.60;99.90;;;;;;5110929;28;20047;-64
2023/03/31 09:54:48;;;;;;;9.35;3.85;;;12.80;99.90;;;;;;5108674;28;20093;-63
2023/03/31 09:57:34;;;;;;;8.32;4.03;;;13.20;99.90;;;;;;5086521;28;20156;-65
2023/03/31 10:00:13;;;;;;;8.50;4.35;;;13.30;99.90;;;;;;5112584;28;20043;-65
2023/03/31 10:03:05;;;;;;;7.22;4.63;;;13.30;99.90;;;;;;5112668;28;20047;-64
2023/03/31 10:05:36;;;;;;;7.13;3.83;;;13.70;99.90;;;;;;5108744;28;20386;-65
2023/03/31 10:08:24;;;;;;;9.38;4.55;;;14.10;99.90;;;;;;5092812;28;20108;-65
2023/03/31 10:11:00;;;;;;;6.28;3.50;;;14.40;99.90;;;;;;5110822;28;20126;-63
2023/03/31 10:13:38;;;;;;;8.38;3.30;;;14.50;99.90;;;;;;5087829;28;20073;-64
2023/03/31 10:16:11;;;;;;;8.05;3.33;;;14.40;99.90;;;;;;5109564;28;20599;-64
2023/03/31 10:18:41;;;;;;;7.75;3.17;;;14.40;99.90;;;;;;5068534;28;20048;-65
2023/03/31 10:21:25;;;;;;;6.03;2.83;;;14.30;99.90;;;;;;5091607;28;20039;-63
2023/03/31 10:23:54;;;;;;;7.18;3.25;;;14.30;99.90;;;;;;5107588;28;20532;-64
2023/03/31 10:26:27;;;;;;;8.18;3.50;;;14.10;99.90;;;;;;5109063;28;20123;-63
2023/03/31 10:28:54;;;;;;;5.90;2.67;;;14.10;99.90;;;;;;5108817;28;20698;-61
2023/03/31 10:31:25;;;;;;;8.48;2.80;;;14.20;99.90;;;;;;5091124;28;20545;-65
2023/03/31 10:33:54;;;;;;;8.03;2.57;;;14.10;99.90;;;;;;5108286;28;20044;-64
2023/03/31 10:36:27;;;;;;;7.22;3.10;;;14.10;99.90;;;;;;5106818;28;20502;-64
2023/03/31 10:38:55;;;;;;;6.60;2.80;;;14.10;99.90;;;;;;5090501;28;20151;-65
2023/03/31 10:41:26;;;;;;;6.35;2.80;;;14.30;99.90;;;;;;5115949;27;20084;-64
2023/03/31 10:43:55;;;;;;;9.18;3.47;;;14.30;99.90;;;;;;5113572;27;20070;-64
2023/03/31 10:46:47;;;;;;;6.68;2.92;;;14.40;99.90;;;;;;5106824;28;20096;-63
2023/03/31 10:49:24;;;;;;;10.45;3.03;;;14.70;99.90;;;;;;5107447;28;20493;-63
2023/03/31 10:51:53;;;;;;;6.82;3.15;;;14.80;99.90;;;;;;5110304;28;20047;-63
2023/03/31 10:54:21;;;;;;;7.93;3.58;;;14.90;99.90;;;;;;5107770;28;20513;-63
2023/03/31 10:56:53;;;;;;;7.53;2.60;;;14.90;99.90;;;;;;5091216;28;20044;-63
2023/03/31 10:59:36;;;;;;;7.90;3.33;;;14.90;99.90;;;;;;5090901;28;20043;-61
2023/03/31 11:02:34;;;;;;;6.95;2.92;;;15.00;99.90;;;;;;5086719;28;20054;-63
2023/03/31 11:05:14;;;;;;;7.82;3.08;;;15.30;99.90;;;;;;5110217;28;20497;-63
2023/03/31 11:07:50;;;;;;;5.55;2.80;;;15.50;99.90;;;;;;5105324;28;20040;-65
2023/03/31 11:10:35;;;;;;;7.75;2.78;;;15.00;99.90;;;;;;5103191;28;20150;-63
2023/03/31 11:13:22;;;;;;;8.35;2.70;;;14.90;99.90;;;;;;5097455;28;20043;-64
2023/03/31 11:16:30;;;;;;;8.05;2.60;;;14.50;99.90;;;;;;5105944;28;20032;-63
2023/03/31 11:19:21;;;;;;;7.68;2.83;;;14.30;99.90;;;;;;5098138;28;20051;-63
2023/03/31 11:22:06;;;;;;;7.97;3.10;;;14.60;99.90;;;;;;5101510;28;20044;-64
2023/03/31 11:25:13;;;;;;;6.13;2.70;;;14.90;99.90;;;;;;5109074;28;20031;-61
2023/03/31 11:28:19;;;;;;;7.78;3.03;;;15.20;99.90;;;;;;5005553;28;20049;-63
2023/03/31 11:30:56;;;;;;;9.90;2.90;;;15.40;99.90;;;;;;4987374;28;20544;-62
2023/03/31 11:33:44;;;;;;;9.45;3.20;;;15.40;99.90;;;;;;5001950;28;20042;-64
2023/03/31 11:36:35;;;;;;;12.02;2.88;;;15.30;99.90;;;;;;5005821;28;20042;-62
2023/03/31 11:39:28;;;;;;;6.13;2.30;;;15.00;99.90;;;;;;5004805;28;20064;-65
2023/03/31 11:42:03;;;;;;;3.05;2.10;;;14.40;99.90;;;;;;5006218;28;20199;-62
2023/03/31 11:44:43;;;;;;;8.45;2.83;;;14.10;99.90;;;;;;4999909;28;20428;-64
2023/03/31 11:47:20;;;;;;;7.88;2.28;;;14.00;99.90;;;;;;5005350;28;20048;-63
2023/03/31 11:49:54;;;;;;;5.35;2.33;;;13.90;99.90;;;;;;5005804;28;20445;-64
2023/03/31 11:52:33;;;;;;;4.43;2.17;;;13.90;99.90;;;;;;5005121;28;20172;-63
2023/03/31 11:55:16;;;;;;;4.80;2.58;;;14.10;99.90;;;;;;5005561;28;20045;-64
2023/03/31 11:58:04;;;;;;;6.90;2.67;;;14.00;99.90;;;;;;5005025;28;20488;-62
2023/03/31 12:01:13;;;;;;;4.95;2.50;;;14.00;99.90;;;;;;5009071;28;20060;-64
2023/03/31 12:03:53;;;;;;;5.60;2.30;;;14.10;99.90;;;;;;5104478;28;20564;-61
2023/03/31 12:06:24;;;;;;;4.93;2.30;;;14.00;99.90;;;;;;5102694;28;20126;-61
2023/03/31 12:09:20;;;;;;;6.72;2.70;;;14.00;99.90;;;;;;5088314;28;20078;-64
2023/03/31 12:12:02;;;;;;;6.32;2.42;;;14.40;99.90;;;;;;5106336;28;20133;-63
2023/03/31 12:14:54;;;;;;;7.32;2.47;;;14.50;99.90;;;;;;5103497;28;20524;-62
2023/03/31 12:17:28;;;;;;;6.68;2.33;;;15.10;99.90;;;;;;5100004;28;20509;-63
2023/03/31 12:20:01;;;;;;;3.85;2.22;;;15.70;99.90;;;;;;5101828;28;20515;-63
2023/03/31 12:22:33;;;;;;;4.90;2.60;;;15.80;99.90;;;;;;5109115;28;20131;-64
2023/03/31 12:25:01;;;;;;;3.83;2.17;;;15.50;99.90;;;;;;5102412;28;20052;-62
2023/03/31 12:27:43;;;;;;;4.05;2.42;;;14.90;99.90;;;;;;5088236;28;20050;-63
2023/03/31 12:30:25;;;;;;;6.65;2.30;;;14.60;99.90;;;;;;5103440;28;20552;-63
2023/03/31 12:33:01;;;;;;;4.10;1.85;;;14.60;99.90;;;;;;5090547;28;20039;-63
2023/03/31 12:35:40;;;;;;;4.90;2.42;;;15.30;99.90;;;;;;5085696;28;20089;-62
2023/03/31 12:38:17;;;;;;;6.60;2.33;;;15.10;99.90;;;;;;5106947;28;20051;-64
2023/03/31 12:41:02;;;;;;;5.72;2.60;;;14.90;99.90;;;;;;5104916;28;20043;-63
2023/03/31 12:44:06;;;;;;;3.80;2.40;;;14.50;99.90;;;;;;5102923;28;20044;-63
2023/03/31 12:46:40;;;;;;;5.18;2.60;;;14.20;99.90;;;;;;5101387;28;20074;-64
2023/03/31 12:49:27;;;;;;;4.30;2.20;;;14.10;99.90;;;;;;5101538;28;20067;-63
2023/03/31 12:52:05;;;;;;;2.67;2.05;;;14.30;99.90;;;;;;5107670;28;20047;-62
2023/03/31 12:54:50;;;;;;;4.80;2.30;;;14.20;99.90;;;;;;5108417;28;20439;-62
2023/03/31 12:57:23;;;;;;;5.70;2.60;;;14.20;99.90;;;;;;5108055;28;20032;-64
2023/03/31 13:00:24;;;;;;;3.17;2.10;;;14.30;99.90;;;;;;5106760;28;20032;-64
2023/03/31 13:03:29;;;;;;;4.50;2.40;;;14.30;99.90;;;;;;5103309;28;20463;-63
2023/03/31 13:05:57;;;;;;;4.70;2.25;;;14.10;99.90;;;;;;5105962;28;20046;-63
2023/03/31 13:08:50;;;;;;;9.30;3.70;;;13.60;99.90;;;;;;5111837;28;20506;-63
2023/03/31 13:11:22;;;;;;;7.50;5.60;;;12.00;99.90;;;;;;5087071;28;20054;-65
2023/03/31 13:14:00;;;;;;;5.43;4.78;;;10.30;99.90;;;;;;5112504;28;20477;-66
2023/03/31 13:16:32;;;;;;;6.38;4.57;;;9.40;99.90;;;;;;5092903;28;20047;-65
2023/03/31 13:19:00;;;;;;;5.47;3.38;;;9.10;99.90;;;;;;5094161;28;20057;-63
2023/03/31 13:21:27;;;;;;;3.72;3.17;;;8.90;99.90;;;;;;5103809;28;20126;-63
2023/03/31 13:24:00;;;;;;;3.67;2.20;;;8.90;99.90;;;;;;5110444;28;20040;-62